createdAt,value
2018-05-25T00:00:44.675Z,100468.28
2018-05-25T00:03:12.155Z,100469.78
2018-05-25T00:05:39.636Z,100468.84
2018-05-25T00:08:07.088Z,100473.63
2018-05-25T00:10:34.603Z,100468.72
2018-05-25T00:13:02.067Z,100468.25
2018-05-25T00:15:29.526Z,100474.33
2018-05-25T00:17:57.003Z,100478.91
2018-05-25T00:20:24.471Z,100482.14
2018-05-25T00:22:51.949Z,100479.97
2018-05-25T00:25:19.404Z,100485.34
2018-05-25T00:27:46.896Z,100480.02
2018-05-25T00:30:14.360Z,100482.10
2018-05-25T00:32:41.823Z,100478.95
2018-05-25T00:35:09.303Z,100474.64
2018-05-25T00:37:36.772Z,100479.14
2018-05-25T00:40:04.255Z,100483.64
2018-05-25T00:42:31.739Z,100483.12
2018-05-25T00:44:59.240Z,100478.27
2018-05-25T00:47:26.704Z,100482.73
2018-05-25T00:49:54.159Z,100487.86
2018-05-25T00:52:21.648Z,100479.42
2018-05-25T00:55:00.876Z,100483.19
2018-05-25T00:57:28.355Z,100487.79
2018-05-25T00:59:55.815Z,100484.45
2018-05-25T01:02:23.315Z,100490.45
2018-05-25T01:04:50.776Z,100485.49
2018-05-25T01:07:18.239Z,100483.56
2018-05-25T01:09:45.719Z,100481.74
2018-05-25T01:12:13.167Z,100484.85
2018-05-25T01:14:40.674Z,100482.64
2018-05-25T01:17:08.123Z,100476.97
2018-05-25T01:19:35.755Z,100480.17
2018-05-25T01:22:03.208Z,100476.66
2018-05-25T01:24:30.664Z,100472.99
2018-05-25T01:26:58.140Z,100468.61
2018-05-25T01:29:25.603Z,100472.35
2018-05-25T01:31:53.079Z,100462.88
2018-05-25T01:34:20.535Z,100468.67
2018-05-25T01:36:48.044Z,100467.87
2018-05-25T01:39:15.503Z,100462.47
2018-05-25T01:41:42.960Z,100466.39
2018-05-25T01:44:10.452Z,100465.41
2018-05-25T01:46:37.924Z,100469.05
2018-05-25T01:49:05.449Z,100467.11
2018-05-25T01:51:32.905Z,100461.89
2018-05-25T01:54:00.632Z,100461.14
2018-05-25T01:56:28.112Z,100457.77
2018-05-25T01:58:55.580Z,100462.86
2018-05-25T02:01:23.061Z,100464.91
2018-05-25T02:03:50.539Z,100467.23
2018-05-25T02:06:18.012Z,100464.36
2018-05-25T02:08:45.463Z,100462.16
2018-05-25T02:11:13.248Z,100457.61
2018-05-25T02:13:40.705Z,100459.95
2018-05-25T02:16:08.159Z,100458.50
2018-05-25T02:18:35.632Z,100454.96
2018-05-25T02:21:03.092Z,100463.06
2018-05-25T02:23:30.600Z,100465.48
2018-05-25T02:25:58.059Z,100468.09
2018-05-25T02:28:25.695Z,100469.66
2018-05-25T02:30:53.162Z,100467.55
2018-05-25T02:33:20.615Z,100467.77
2018-05-25T02:35:48.115Z,100463.75
2018-05-25T02:38:15.572Z,100457.61
2018-05-25T02:40:43.056Z,100467.52
2018-05-25T02:43:10.512Z,100463.14
2018-05-25T02:45:38.042Z,100457.74
2018-05-25T02:48:05.508Z,100467.19
2018-05-25T02:50:32.968Z,100469.47
2018-05-25T02:53:00.445Z,100469.11
2018-05-25T02:55:27.915Z,100467.19
2018-05-25T02:57:55.408Z,100463.61
2018-05-25T03:00:22.898Z,100471.28
2018-05-25T03:02:50.389Z,100466.17
2018-05-25T03:05:17.873Z,100478.16
2018-05-25T03:07:45.328Z,100473.38
2018-05-25T03:10:12.947Z,100475.55
2018-05-25T03:12:40.408Z,100478.88
2018-05-25T03:15:07.872Z,100475.34
2018-05-25T03:17:35.373Z,100475.97
2018-05-25T03:20:02.837Z,100477.34
2018-05-25T03:22:30.335Z,100477.95
2018-05-25T03:24:57.804Z,100475.38
2018-05-25T03:27:25.263Z,100481.56
2018-05-25T03:29:52.743Z,100477.23
2018-05-25T03:32:20.199Z,100484.45
2018-05-25T03:34:47.695Z,100482.03
2018-05-25T03:37:15.156Z,100484.98
2018-05-25T03:39:42.643Z,100487.56
2018-05-25T03:42:10.108Z,100483.30
2018-05-25T03:44:37.592Z,100479.58
2018-05-25T03:47:05.084Z,100485.64
2018-05-25T03:49:32.539Z,100482.73
2018-05-25T03:52:00.040Z,100478.06
2018-05-25T03:54:27.521Z,100480.83
2018-05-25T03:56:55.127Z,100486.80
2018-05-25T04:02:22.960Z,100482.41
2018-05-25T04:04:50.412Z,100476.73
2018-05-25T04:07:17.884Z,100475.83
2018-05-25T04:09:45.367Z,100470.02
2018-05-25T04:12:12.824Z,100473.20
2018-05-25T04:14:40.307Z,100484.05
2018-05-25T04:17:07.772Z,100484.87
2018-05-25T04:19:35.400Z,100483.56
2018-05-25T04:22:02.872Z,100490.82
2018-05-25T04:24:30.336Z,100490.78
2018-05-25T04:26:57.860Z,100493.13
2018-05-25T04:29:25.332Z,100495.13
2018-05-25T04:31:52.860Z,100494.70
2018-05-25T04:34:20.320Z,100497.72
2018-05-25T04:36:48.051Z,100496.95
2018-05-25T04:39:15.524Z,100497.45
2018-05-25T04:41:43.002Z,100496.38
2018-05-25T04:44:10.585Z,100496.47
2018-05-25T04:46:38.047Z,100502.14
2018-05-25T04:49:05.523Z,100501.91
2018-05-25T04:51:32.988Z,100506.66
2018-05-25T04:54:00.475Z,100508.84
2018-05-25T04:56:27.955Z,100509.91
2018-05-25T04:58:55.443Z,100511.70
2018-05-25T05:01:22.915Z,100513.77
2018-05-25T05:03:50.372Z,100511.13
2018-05-25T05:06:17.849Z,100512.41
2018-05-25T05:08:45.315Z,100506.68
2018-05-25T05:11:13.212Z,100512.89
2018-05-25T05:13:40.704Z,100502.13
2018-05-25T05:16:08.176Z,100506.47
2018-05-25T05:18:35.656Z,100500.27
2018-05-25T05:21:03.123Z,100503.30
2018-05-25T05:23:30.602Z,100509.82
2018-05-25T05:25:58.061Z,100508.61
2018-05-25T05:28:25.721Z,100504.30
2018-05-25T05:30:53.178Z,100506.56
2018-05-25T05:33:20.647Z,100510.43
2018-05-25T05:35:48.139Z,100516.67
2018-05-25T05:38:15.641Z,100524.28
2018-05-25T05:40:43.127Z,100530.94
2018-05-25T05:43:10.585Z,100524.87
2018-05-25T05:45:38.081Z,100526.21
2018-05-25T05:48:05.545Z,100525.87
2018-05-25T05:50:33.071Z,100529.77
2018-05-25T05:53:00.527Z,100528.53
2018-05-25T05:55:27.996Z,100535.34
2018-05-25T05:57:55.476Z,100532.24
2018-05-25T06:00:22.931Z,100531.29
2018-05-25T06:02:50.424Z,100528.14
2018-05-25T06:05:17.879Z,100538.47
2018-05-25T06:07:45.356Z,100541.90
2018-05-25T06:10:12.839Z,100540.92
2018-05-25T06:12:40.291Z,100540.55
2018-05-25T06:15:07.774Z,100542.11
2018-05-25T06:17:35.231Z,100543.66
2018-05-25T06:20:02.800Z,100545.56
2018-05-25T06:22:30.217Z,100547.62
2018-05-25T06:24:57.696Z,100553.00
2018-05-25T06:27:25.175Z,100557.02
2018-05-25T06:29:52.632Z,100553.38
2018-05-25T06:32:20.119Z,100562.95
2018-05-25T06:34:47.632Z,100562.94
2018-05-25T06:37:15.263Z,100567.41
2018-05-25T06:39:42.727Z,100561.72
2018-05-25T06:42:10.184Z,100566.58
2018-05-25T06:44:37.672Z,100567.45
2018-05-25T06:47:05.143Z,100567.45
2018-05-25T06:49:32.622Z,100570.56
2018-05-25T06:52:00.083Z,100572.75
2018-05-25T06:54:27.851Z,100573.84
2018-05-25T06:56:55.319Z,100575.70
2018-05-25T06:59:22.793Z,100571.77
2018-05-25T07:01:50.279Z,100575.08
2018-05-25T07:04:17.740Z,100576.81
2018-05-25T07:06:45.225Z,100570.83
2018-05-25T07:09:12.683Z,100576.98
2018-05-25T07:11:40.163Z,100577.58
2018-05-25T07:14:07.665Z,100576.60
2018-05-25T07:16:35.123Z,100581.27
2018-05-25T07:19:02.628Z,100580.25
2018-05-25T07:21:30.108Z,100582.23
2018-05-25T07:23:57.585Z,100583.13
2018-05-25T07:26:25.052Z,100585.95
2018-05-25T07:28:52.539Z,100593.63
2018-05-25T07:31:20.013Z,100592.19
2018-05-25T07:33:47.488Z,100590.86
2018-05-25T07:36:14.972Z,100586.20
2018-05-25T07:38:42.443Z,100594.33
2018-05-25T07:41:09.923Z,100592.07
2018-05-25T07:43:37.383Z,100593.62
2018-05-25T07:46:05.016Z,100587.94
2018-05-25T07:48:32.463Z,100589.66
2018-05-25T07:50:59.919Z,100582.91
2018-05-25T07:53:27.398Z,100589.61
2018-05-25T07:55:54.856Z,100580.54
2018-05-25T07:58:22.365Z,100586.55
2018-05-25T08:00:49.820Z,100592.53
2018-05-25T08:03:17.516Z,100591.42
2018-05-25T08:05:44.987Z,100590.90
2018-05-25T08:08:12.448Z,100584.93
2018-05-25T08:10:39.958Z,100591.91
2018-05-25T08:13:07.419Z,100595.32
2018-05-25T08:15:34.896Z,100580.56
2018-05-25T08:18:02.380Z,100586.02
2018-05-25T08:20:30.119Z,100587.53
2018-05-25T08:22:57.580Z,100591.20
2018-05-25T08:25:25.036Z,100594.33
2018-05-25T08:27:52.518Z,100598.02
2018-05-25T08:30:20.004Z,100599.61
2018-05-25T08:32:47.475Z,100595.55
2018-05-25T08:35:14.943Z,100595.03
2018-05-25T08:37:42.622Z,100602.91
2018-05-25T08:40:10.084Z,100608.22
2018-05-25T08:42:37.547Z,100612.23
2018-05-25T08:45:05.029Z,100613.08
2018-05-25T08:47:32.483Z,100607.02
2018-05-25T08:49:59.964Z,100606.53
2018-05-25T08:52:27.474Z,100614.98
2018-05-25T08:54:55.093Z,100617.20
2018-05-25T08:57:22.547Z,100610.59
2018-05-25T08:59:50.027Z,100609.97
2018-05-25T09:02:17.528Z,100611.25
2018-05-25T09:04:44.983Z,100610.89
2018-05-25T09:07:12.479Z,100609.19
2018-05-25T09:09:39.944Z,100604.61
2018-05-25T09:12:07.452Z,100604.09
2018-05-25T09:14:34.908Z,100604.09
2018-05-25T09:17:02.361Z,100595.61
2018-05-25T09:19:29.839Z,100598.49
2018-05-25T09:21:57.361Z,100593.61
2018-05-25T09:24:24.795Z,100594.08
2018-05-25T09:26:52.252Z,100602.92
2018-05-25T09:29:20.076Z,100602.11
2018-05-25T09:31:47.531Z,100596.20
2018-05-25T09:34:14.992Z,100599.38
2018-05-25T09:36:42.471Z,100595.12
2018-05-25T09:39:09.940Z,100600.05
2018-05-25T09:41:37.415Z,100595.27
2018-05-25T09:44:04.884Z,100598.38
2018-05-25T09:46:32.383Z,100598.23
2018-05-25T09:48:59.847Z,100602.09
2018-05-25T09:51:27.320Z,100602.90
2018-05-25T09:53:54.799Z,100597.33
2018-05-25T09:56:22.267Z,100602.77
2018-05-25T09:58:49.748Z,100598.48
2018-05-25T10:01:17.236Z,100605.75
2018-05-25T10:03:44.879Z,100603.95
2018-05-25T10:06:12.355Z,100597.63
2018-05-25T10:08:39.853Z,100603.13
2018-05-25T10:11:07.313Z,100607.78
2018-05-25T10:13:34.771Z,100601.16
2018-05-25T10:16:02.258Z,100594.05
2018-05-25T10:18:29.708Z,100587.15
2018-05-25T10:20:57.193Z,100586.08
2018-05-25T10:23:24.679Z,100588.49
2018-05-25T10:25:52.157Z,100584.09
2018-05-25T10:28:19.649Z,100574.02
2018-05-25T10:30:47.153Z,100572.59
2018-05-25T10:33:14.631Z,100570.92
2018-05-25T10:35:42.084Z,100568.43
2018-05-25T10:38:09.610Z,100567.38
2018-05-25T10:40:37.115Z,100568.19
2018-05-25T10:43:04.809Z,100565.92
2018-05-25T10:45:32.311Z,100569.29
2018-05-25T10:47:59.803Z,100561.84
2018-05-25T10:50:27.260Z,100560.24
2018-05-25T10:52:54.736Z,100556.44
2018-05-25T10:55:22.187Z,100555.77
2018-05-25T10:57:49.675Z,100555.13
2018-05-25T11:00:17.128Z,100553.88
2018-05-25T11:02:44.627Z,100553.45
2018-05-25T11:05:12.107Z,100556.69
2018-05-25T11:07:39.573Z,100552.72
2018-05-25T11:10:07.365Z,100551.25
2018-05-25T11:12:34.827Z,100548.90
2018-05-25T11:15:02.299Z,100542.48
2018-05-25T11:17:29.776Z,100540.09
2018-05-25T11:19:57.251Z,100544.88
2018-05-25T11:22:24.912Z,100540.17
2018-05-25T11:24:52.394Z,100540.72
2018-05-25T11:27:19.857Z,100535.16
2018-05-25T11:29:47.355Z,100539.20
2018-05-25T11:32:14.812Z,100535.59
2018-05-25T11:34:42.486Z,100526.24
2018-05-25T11:37:09.943Z,100520.34
2018-05-25T11:39:37.472Z,100521.64
2018-05-25T11:42:04.960Z,100519.08
2018-05-25T11:44:32.407Z,100516.25
2018-05-25T11:46:59.887Z,100512.97
2018-05-25T11:49:27.336Z,100520.07
2018-05-25T11:51:54.831Z,100508.14
2018-05-25T11:54:22.290Z,100513.28
2018-05-25T11:56:49.748Z,100510.53
2018-05-25T11:59:17.228Z,100505.24
2018-05-25T12:01:44.746Z,100514.09
2018-05-25T12:04:12.183Z,100506.85
2018-05-25T12:06:39.691Z,100503.13
2018-05-25T12:09:07.179Z,100507.31
2018-05-25T12:11:34.667Z,100505.56
2018-05-25T12:14:02.129Z,100494.64
2018-05-25T12:16:29.631Z,100495.48
2018-05-25T12:18:57.089Z,100494.44
2018-05-25T12:21:24.571Z,100498.72
2018-05-25T12:23:52.033Z,100494.51
2018-05-25T12:26:19.835Z,100501.50
2018-05-25T12:28:47.292Z,100493.97
2018-05-25T12:31:14.747Z,100495.39
2018-05-25T12:33:42.224Z,100496.86
2018-05-25T12:36:09.680Z,100498.30
2018-05-25T12:38:37.171Z,100496.52
2018-05-25T12:41:04.635Z,100498.80
2018-05-25T12:43:32.548Z,100501.53
2018-05-25T12:46:00.011Z,100490.92
2018-05-25T12:48:27.483Z,100496.93
2018-05-25T12:50:54.960Z,100499.80
2018-05-25T12:53:22.419Z,100498.12
2018-05-25T12:55:49.895Z,100496.81
2018-05-25T12:58:17.352Z,100496.65
2018-05-25T13:00:45.141Z,100496.44
2018-05-25T13:03:12.603Z,100500.50
2018-05-25T13:05:40.080Z,100500.79
2018-05-25T13:08:07.561Z,100500.91
2018-05-25T13:10:35.020Z,100493.12
2018-05-25T13:13:02.496Z,100501.20
2018-05-25T13:15:29.947Z,100493.58
2018-05-25T13:17:57.443Z,100489.28
2018-05-25T13:20:24.885Z,100481.07
2018-05-25T13:22:52.335Z,100483.25
2018-05-25T13:25:19.804Z,100479.75
2018-05-25T13:27:47.262Z,100480.14
2018-05-25T13:30:14.737Z,100487.05
2018-05-25T13:32:42.195Z,100479.19
2018-05-25T13:35:09.708Z,100479.11
2018-05-25T13:37:37.160Z,100468.70
2018-05-25T13:40:04.625Z,100468.05
2018-05-25T13:42:32.118Z,100469.09
2018-05-25T13:44:59.567Z,100475.08
2018-05-25T13:47:27.039Z,100475.77
2018-05-25T13:49:54.516Z,100475.08
2018-05-25T13:52:22.031Z,100471.37
2018-05-25T13:54:49.490Z,100466.61
2018-05-25T13:57:16.955Z,100469.49
2018-05-25T13:59:44.420Z,100473.03
2018-05-25T14:02:11.892Z,100468.36
2018-05-25T14:04:39.364Z,100468.77
2018-05-25T14:07:06.864Z,100465.80
2018-05-25T14:09:34.356Z,100468.13
2018-05-25T14:12:01.807Z,100467.59
2018-05-25T14:14:29.415Z,100470.23
2018-05-25T14:16:56.875Z,100470.84
2018-05-25T14:19:24.328Z,100469.27
2018-05-25T14:21:51.804Z,100463.78
2018-05-25T14:24:19.247Z,100467.86
2018-05-25T14:26:46.728Z,100468.98
2018-05-25T14:29:14.172Z,100474.69
2018-05-25T14:31:41.617Z,100469.20
2018-05-25T14:34:09.118Z,100463.39
2018-05-25T14:36:36.593Z,100461.83
2018-05-25T14:39:04.231Z,100461.61
2018-05-25T14:41:31.752Z,100460.76
2018-05-25T14:43:59.216Z,100461.18
2018-05-25T14:46:26.692Z,100452.03
2018-05-25T14:48:54.139Z,100454.08
2018-05-25T14:51:21.608Z,100454.49
2018-05-25T14:53:49.055Z,100447.58
2018-05-25T14:56:16.730Z,100455.28
2018-05-25T14:58:44.179Z,100448.33
2018-05-25T15:01:11.652Z,100449.25
2018-05-25T15:03:39.120Z,100456.79
2018-05-25T15:06:06.610Z,100450.37
2018-05-25T15:08:34.068Z,100451.28
2018-05-25T15:11:01.526Z,100445.66
2018-05-25T15:13:29.007Z,100444.68
2018-05-25T15:15:56.472Z,100448.19
2018-05-25T15:18:23.927Z,100455.38
2018-05-25T15:20:51.400Z,100464.17
2018-05-25T15:23:18.851Z,100462.44
2018-05-25T15:25:46.335Z,100449.23
2018-05-25T15:28:13.797Z,100447.13
2018-05-25T15:30:41.756Z,100452.34
2018-05-25T15:33:09.205Z,100447.33
2018-05-25T15:35:36.653Z,100446.83
2018-05-25T15:38:04.125Z,100446.47
2018-05-25T15:40:31.572Z,100435.98
2018-05-25T15:42:59.060Z,100441.48
2018-05-25T15:45:26.503Z,100437.39
2018-05-25T15:47:54.007Z,100434.23
2018-05-25T15:50:21.460Z,100428.58
2018-05-25T15:52:48.907Z,100431.98
2018-05-25T15:55:16.410Z,100430.08
2018-05-25T15:57:43.856Z,100425.34
2018-05-25T16:00:11.371Z,100421.64
2018-05-25T16:02:38.823Z,100423.27
2018-05-25T16:05:06.312Z,100425.94
2018-05-25T16:07:33.776Z,100424.37
2018-05-25T16:10:01.224Z,100425.80
2018-05-25T16:12:28.711Z,100419.72
2018-05-25T16:14:56.185Z,100417.17
2018-05-25T16:17:23.657Z,100412.52
2018-05-25T16:19:51.163Z,100418.97
2018-05-25T16:22:19.076Z,100412.72
2018-05-25T16:24:46.542Z,100414.84
2018-05-25T16:27:14.004Z,100418.28
2018-05-25T16:29:41.477Z,100412.22
2018-05-25T16:32:08.929Z,100410.72
2018-05-25T16:34:36.404Z,100411.48
2018-05-25T16:37:03.864Z,100404.09
2018-05-25T16:39:31.364Z,100403.13
2018-05-25T16:41:58.807Z,100400.33
2018-05-25T16:44:26.256Z,100398.53
2018-05-25T16:46:53.747Z,100405.20
2018-05-25T16:49:21.207Z,100396.92
2018-05-25T16:51:48.696Z,100399.50
2018-05-25T16:54:16.152Z,100395.70
2018-05-25T16:56:43.605Z,100400.58
2018-05-25T16:59:11.142Z,100402.76
2018-05-25T17:01:38.593Z,100398.67
2018-05-25T17:04:06.369Z,100395.66
2018-05-25T17:06:33.824Z,100401.32
2018-05-25T17:09:01.280Z,100398.23
2018-05-25T17:11:28.769Z,100399.61
2018-05-25T17:13:56.219Z,100401.30
2018-05-25T17:16:23.695Z,100395.20
2018-05-25T17:18:51.163Z,100395.48
2018-05-25T17:21:18.632Z,100399.72
2018-05-25T17:23:46.092Z,100395.63
2018-05-25T17:26:14.028Z,100404.48
2018-05-25T17:28:41.477Z,100403.63
2018-05-25T17:31:08.923Z,100411.75
2018-05-25T17:33:36.395Z,100406.81
2018-05-25T17:36:03.898Z,100406.28
2018-05-25T17:38:31.336Z,100404.23
2018-05-25T17:40:58.783Z,100409.89
2018-05-25T17:43:26.396Z,100411.53
2018-05-25T17:45:53.867Z,100408.23
2018-05-25T17:48:21.315Z,100410.47
2018-05-25T17:50:48.797Z,100414.52
2018-05-25T17:53:16.247Z,100412.35
2018-05-25T17:55:43.724Z,100409.87
2018-05-25T17:58:11.187Z,100413.88
2018-05-25T18:00:38.683Z,100416.83
2018-05-25T18:03:06.136Z,100412.47
2018-05-25T18:05:33.608Z,100418.34
2018-05-25T18:08:01.081Z,100418.64
2018-05-25T18:10:28.554Z,100411.16
2018-05-25T18:12:56.032Z,100414.94
2018-05-25T18:15:23.492Z,100412.60
2018-05-25T18:17:51.135Z,100411.94
2018-05-25T18:20:18.593Z,100415.45
2018-05-25T18:22:46.044Z,100414.39
2018-05-25T18:25:13.512Z,100423.30
2018-05-25T18:27:40.963Z,100418.52
2018-05-25T18:30:08.447Z,100425.73
2018-05-25T18:32:35.960Z,100427.58
2018-05-25T18:35:03.423Z,100437.77
2018-05-25T18:37:30.871Z,100439.05
2018-05-25T18:39:58.357Z,100443.02
2018-05-25T18:42:25.844Z,100440.91
2018-05-25T18:44:53.317Z,100447.01
2018-05-25T18:47:20.790Z,100449.42
2018-05-25T18:49:48.252Z,100441.59
2018-05-25T18:52:15.752Z,100438.19
2018-05-25T18:54:43.209Z,100440.92
2018-05-25T18:57:10.675Z,100438.22
2018-05-25T18:59:38.215Z,100437.86
2018-05-25T19:02:05.660Z,100444.59
2018-05-25T19:04:33.146Z,100450.65
2018-05-25T19:07:00.637Z,100448.02
2018-05-25T19:09:28.709Z,100450.12
2018-05-25T19:11:56.178Z,100455.20
2018-05-25T19:14:23.632Z,100463.15
2018-05-25T19:16:51.113Z,100454.90
2018-05-25T19:19:18.572Z,100462.42
2018-05-25T19:21:46.061Z,100461.48
2018-05-25T19:24:13.555Z,100456.36
2018-05-25T19:26:41.073Z,100465.78
2018-05-25T19:29:08.563Z,100461.50
2018-05-25T19:31:36.028Z,100464.95
2018-05-25T19:34:03.519Z,100467.60
2018-05-25T19:36:31.128Z,100467.08
2018-05-25T19:38:58.635Z,100470.38
2018-05-25T19:41:26.163Z,100472.66
2018-05-25T19:43:53.908Z,100474.02
2018-05-25T19:46:21.373Z,100477.37
2018-05-25T19:48:48.837Z,100476.34
2018-05-25T19:51:16.346Z,100477.69
2018-05-25T19:53:43.822Z,100485.39
2018-05-25T19:56:11.325Z,100487.28
2018-05-25T19:58:38.784Z,100486.66
2018-05-25T20:01:06.548Z,100488.74
2018-05-25T20:03:34.006Z,100488.80
2018-05-25T20:06:01.513Z,100491.69
2018-05-25T20:08:28.980Z,100492.84
2018-05-25T20:10:56.451Z,100492.96
2018-05-25T20:13:23.925Z,100496.98
2018-05-25T20:15:51.392Z,100490.88
2018-05-25T20:18:18.880Z,100494.23
2018-05-25T20:20:46.373Z,100489.71
2018-05-25T20:23:13.842Z,100488.72
2018-05-25T20:25:41.324Z,100497.66
2018-05-25T20:28:08.812Z,100492.85
2018-05-25T20:30:36.324Z,100495.36
2018-05-25T20:33:03.789Z,100488.20
2018-05-25T20:35:31.272Z,100488.42
2018-05-25T20:37:58.739Z,100479.69
2018-05-25T20:40:26.248Z,100484.55
2018-05-25T20:42:53.719Z,100483.09
2018-05-25T20:45:21.172Z,100484.29
2018-05-25T20:47:48.663Z,100474.25
2018-05-25T20:50:16.108Z,100476.03
2018-05-25T20:52:43.576Z,100473.16
2018-05-25T20:55:11.027Z,100475.47
2018-05-25T20:57:38.651Z,100474.77
2018-05-25T21:00:06.113Z,100479.20
2018-05-25T21:02:33.578Z,100477.84
2018-05-25T21:05:01.056Z,100491.39
2018-05-25T21:07:28.533Z,100486.98
2018-05-25T21:09:56.034Z,100486.36
2018-05-25T21:12:23.508Z,100484.13
2018-05-25T21:14:50.996Z,100488.94
2018-05-25T21:17:18.447Z,100498.58
2018-05-25T21:19:45.899Z,100500.64
2018-05-25T21:22:13.380Z,100502.66
2018-05-25T21:24:40.895Z,100501.69
2018-05-25T21:27:08.383Z,100500.92
2018-05-25T21:29:35.849Z,100505.73
2018-05-25T21:32:03.341Z,100502.81
2018-05-25T21:34:30.800Z,100506.02
2018-05-25T21:36:58.268Z,100508.63
2018-05-25T21:39:25.749Z,100510.98
2018-05-25T21:41:53.209Z,100516.79
2018-05-25T21:44:20.679Z,100518.47
2018-05-25T21:46:48.153Z,100512.16
2018-05-25T21:49:15.717Z,100514.98
2018-05-25T21:51:43.174Z,100517.58
2018-05-25T21:54:10.627Z,100527.89
2018-05-25T21:56:38.126Z,100521.53
2018-05-25T21:59:06.172Z,100528.80
2018-05-25T22:01:33.667Z,100528.22
2018-05-25T22:04:01.128Z,100532.67
2018-05-25T22:06:28.891Z,100533.94
2018-05-25T22:08:56.385Z,100531.69
2018-05-25T22:11:23.835Z,100529.79
2018-05-25T22:13:51.311Z,100528.78
2018-05-25T22:16:18.789Z,100530.27
2018-05-25T22:18:46.287Z,100527.30
2018-05-25T22:21:13.740Z,100534.89
2018-05-25T22:23:41.239Z,100530.94
2018-05-25T22:26:08.696Z,100524.54
2018-05-25T22:28:36.148Z,100528.61
2018-05-25T22:31:03.644Z,100532.92
2018-05-25T22:33:31.119Z,100523.74
2018-05-25T22:35:58.605Z,100522.52
2018-05-25T22:38:26.111Z,100528.25
2018-05-25T22:40:53.719Z,100530.15
2018-05-25T22:43:33.028Z,100529.26
2018-05-25T22:46:12.275Z,100532.83
2018-05-25T22:48:51.583Z,100531.70
2018-05-25T22:51:31.115Z,100530.15
2018-05-25T22:54:03.699Z,100537.00
2018-05-25T22:56:31.171Z,100538.02
2018-05-25T22:58:58.648Z,100540.44
2018-05-25T23:01:26.099Z,100539.16
2018-05-25T23:03:53.578Z,100534.81
2018-05-25T23:06:21.040Z,100539.56
2018-05-25T23:08:48.519Z,100535.75
2018-05-25T23:11:15.980Z,100544.28
2018-05-25T23:13:43.475Z,100546.50
2018-05-25T23:16:10.927Z,100545.25
2018-05-25T23:18:38.444Z,100549.16
2018-05-25T23:21:05.919Z,100548.05
2018-05-25T23:23:33.378Z,100546.34
2018-05-25T23:26:00.855Z,100548.22
2018-05-25T23:28:28.327Z,100554.01
2018-05-25T23:30:56.075Z,100548.28
2018-05-25T23:33:23.532Z,100552.70
2018-05-25T23:35:50.989Z,100551.63
2018-05-25T23:38:18.471Z,100546.81
2018-05-25T23:40:45.947Z,100549.46
2018-05-25T23:43:13.424Z,100545.09
2018-05-25T23:45:40.900Z,100546.27
2018-05-25T23:48:08.761Z,100551.89
2018-05-25T23:50:36.220Z,100554.20
2018-05-25T23:53:03.708Z,100557.76
2018-05-25T23:55:31.191Z,100565.05
2018-05-25T23:57:58.639Z,100567.36
